createdAt,value
2018-09-27T00:00:13.371Z,102388.14
2018-09-27T00:02:44.350Z,102387.20
2018-09-27T00:05:15.904Z,102384.56
2018-09-27T00:07:48.188Z,102388.63
2018-09-27T00:10:20.876Z,102388.63
2018-09-27T00:12:51.180Z,102391.33
2018-09-27T00:15:25.003Z,102395.80
2018-09-27T00:17:56.519Z,102391.74
2018-09-27T00:20:26.483Z,102386.20
2018-09-27T00:22:57.001Z,102387.13
2018-09-27T00:25:27.822Z,102391.60
2018-09-27T00:28:00.645Z,102394.30
2018-09-27T00:30:35.017Z,102388.41
2018-09-27T00:33:06.990Z,102392.47
2018-09-27T00:35:38.751Z,102384.36
2018-09-27T00:38:10.906Z,102388.41
2018-09-27T00:40:40.936Z,102381.13
2018-09-27T00:43:13.073Z,102394.16
2018-09-27T00:45:43.814Z,102384.67
2018-09-27T00:48:19.142Z,102383.31
2018-09-27T00:50:49.350Z,102385.05
2018-09-27T00:53:21.628Z,102387.38
2018-09-27T00:55:52.195Z,102386.89
2018-09-27T00:58:22.333Z,102384.67
2018-09-27T01:00:53.049Z,102386.89
2018-09-27T01:03:23.720Z,102388.23
2018-09-27T01:05:55.036Z,102383.25
2018-09-27T01:08:26.266Z,102384.59
2018-09-27T01:10:57.110Z,102394.44
2018-09-27T01:13:28.784Z,102386.40
2018-09-27T01:16:01.998Z,102383.25
2018-09-27T01:18:32.173Z,102381.48
2018-09-27T01:21:02.221Z,102381.48
2018-09-27T01:23:34.731Z,102385.05
2018-09-27T01:26:04.797Z,102388.23
2018-09-27T01:28:37.172Z,102387.30
2018-09-27T01:31:10.071Z,102385.53
2018-09-27T01:33:39.944Z,102391.36
2018-09-27T01:36:10.819Z,102392.64
2018-09-27T01:38:42.068Z,102376.34
2018-09-27T01:41:16.265Z,102378.56
2018-09-27T01:43:49.369Z,102382.09
2018-09-27T01:46:19.682Z,102387.98
2018-09-27T01:48:49.486Z,102382.52
2018-09-27T01:51:19.419Z,102387.92
2018-09-27T01:53:49.290Z,102388.30
2018-09-27T01:56:20.185Z,102381.61
2018-09-27T01:58:50.083Z,102386.56
2018-09-27T02:01:19.990Z,102384.80
2018-09-27T02:03:49.978Z,102385.73
2018-09-27T02:06:21.766Z,102382.58
2018-09-27T02:08:51.670Z,102384.39
2018-09-27T02:11:21.736Z,102387.98
2018-09-27T02:13:51.780Z,102396.97
2018-09-27T02:16:21.461Z,102401.44
2018-09-27T02:18:51.611Z,102389.80
2018-09-27T02:21:21.685Z,102392.05
2018-09-27T02:23:51.680Z,102396.09
2018-09-27T02:26:21.559Z,102394.75
2018-09-27T02:28:51.604Z,102387.50
2018-09-27T02:31:23.052Z,102387.50
2018-09-27T02:33:53.359Z,102388.71
2018-09-27T02:36:23.320Z,102377.97
2018-09-27T02:38:53.400Z,102380.15
2018-09-27T02:41:23.437Z,102377.38
2018-09-27T02:43:54.167Z,102366.22
2018-09-27T02:46:25.140Z,102369.79
2018-09-27T02:48:55.022Z,102375.13
2018-09-27T02:51:25.014Z,102370.20
2018-09-27T02:53:55.113Z,102377.45
2018-09-27T02:56:25.133Z,102369.72
2018-09-27T02:58:55.965Z,102373.77
2018-09-27T03:01:27.076Z,102372.34
2018-09-27T03:03:58.007Z,102370.89
2018-09-27T03:06:29.299Z,102374.00
2018-09-27T03:08:58.789Z,102367.55
2018-09-27T03:11:29.740Z,102372.58
2018-09-27T03:14:01.048Z,102378.33
2018-09-27T03:16:30.984Z,102375.55
2018-09-27T03:19:01.126Z,102370.48
2018-09-27T03:21:31.652Z,102378.98
2018-09-27T03:24:02.299Z,102367.82
2018-09-27T03:26:32.298Z,102353.92
2018-09-27T03:29:04.928Z,102352.16
2018-09-27T03:31:37.238Z,102353.02
2018-09-27T03:34:07.536Z,102357.08
2018-09-27T03:36:37.477Z,102351.74
2018-09-27T03:39:11.881Z,102353.17
2018-09-27T03:41:42.958Z,102348.59
2018-09-27T03:44:12.945Z,102354.38
2018-09-27T03:46:45.044Z,102353.44
2018-09-27T03:49:14.999Z,102353.58
2018-09-27T03:51:45.373Z,102353.73
2018-09-27T03:54:16.286Z,102363.19
2018-09-27T03:56:51.540Z,102355.11
2018-09-27T03:59:21.447Z,102356.81
2018-09-27T04:01:52.016Z,102357.82
2018-09-27T04:04:22.299Z,102360.14
2018-09-27T04:06:53.557Z,102361.53
2018-09-27T04:09:26.308Z,102362.36
2018-09-27T04:11:57.764Z,102362.69
2018-09-27T04:14:27.841Z,102360.20
2018-09-27T04:16:57.739Z,102361.55
2018-09-27T04:19:28.513Z,102362.83
2018-09-27T04:22:01.678Z,102366.74
2018-09-27T04:24:32.759Z,102363.31
2018-09-27T04:27:02.693Z,102368.90
2018-09-27T04:29:33.105Z,102373.89
2018-09-27T04:32:05.165Z,102363.98
2018-09-27T04:34:36.718Z,102376.08
2018-09-27T04:37:07.606Z,102372.34
2018-09-27T04:39:37.669Z,102370.12
2018-09-27T04:42:08.359Z,102367.77
2018-09-27T04:44:38.533Z,102364.23
2018-09-27T04:47:08.551Z,102366.00
2018-09-27T04:49:39.300Z,102363.78
2018-09-27T04:52:10.964Z,102370.05
2018-09-27T04:54:43.673Z,102371.74
2018-09-27T04:57:16.578Z,102383.35
2018-09-27T04:59:46.672Z,102372.06
2018-09-27T05:02:16.632Z,102370.64
2018-09-27T05:04:46.662Z,102361.59
2018-09-27T05:07:17.248Z,102368.97
2018-09-27T05:09:47.768Z,102369.39
2018-09-27T05:12:17.581Z,102364.43
2018-09-27T05:14:49.408Z,102365.75
2018-09-27T05:17:19.559Z,102367.96
2018-09-27T05:19:49.787Z,102369.39
2018-09-27T05:22:21.894Z,102367.41
2018-09-27T05:24:53.159Z,102362.73
2018-09-27T05:27:23.271Z,102357.74
2018-09-27T05:29:53.591Z,102359.30
2018-09-27T05:32:25.132Z,102357.42
2018-09-27T05:34:55.791Z,102365.53
2018-09-27T05:37:26.771Z,102348.03
2018-09-27T05:39:57.350Z,102355.41
2018-09-27T05:42:28.461Z,102359.64
2018-09-27T05:44:58.468Z,102354.92
2018-09-27T05:47:28.884Z,102357.48
2018-09-27T05:50:01.774Z,102364.47
2018-09-27T05:52:34.720Z,102367.89
2018-09-27T05:55:05.858Z,102371.57
2018-09-27T05:57:35.881Z,102377.98
2018-09-27T06:00:08.695Z,102368.98
2018-09-27T06:02:38.637Z,102369.80
2018-09-27T06:05:08.568Z,102377.58
2018-09-27T06:07:39.458Z,102371.09
2018-09-27T06:10:10.333Z,102376.20
2018-09-27T06:12:43.114Z,102369.06
2018-09-27T06:15:13.763Z,102374.55
2018-09-27T06:17:44.027Z,102374.12
2018-09-27T06:20:14.066Z,102373.57
2018-09-27T06:22:45.338Z,102366.66
2018-09-27T06:25:15.434Z,102355.77
2018-09-27T06:27:45.811Z,102368.20
2018-09-27T06:30:16.088Z,102358.89
2018-09-27T06:32:47.215Z,102356.30
2018-09-27T06:35:19.209Z,102353.52
2018-09-27T06:37:49.858Z,102360.03
2018-09-27T06:40:20.028Z,102358.52
2018-09-27T06:42:50.761Z,102366.72
2018-09-27T06:45:23.025Z,102366.64
2018-09-27T06:47:53.592Z,102365.74
2018-09-27T06:50:25.235Z,102359.39
2018-09-27T06:52:55.922Z,102361.76
2018-09-27T06:55:28.160Z,102365.48
2018-09-27T06:57:58.953Z,102368.71
2018-09-27T07:00:29.007Z,102367.05
2018-09-27T07:02:59.200Z,102362.02
2018-09-27T07:05:31.046Z,102363.45
2018-09-27T07:08:01.923Z,102363.00
2018-09-27T07:10:32.552Z,102355.89
2018-09-27T07:13:03.462Z,102359.54
2018-09-27T07:16:15.419Z,102363.94
2018-09-27T07:18:46.485Z,102364.50
2018-09-27T07:21:19.333Z,102355.92
2018-09-27T07:23:49.667Z,102363.62
2018-09-27T07:26:21.244Z,102365.77
2018-09-27T07:28:51.381Z,102363.05
2018-09-27T07:31:21.714Z,102363.97
2018-09-27T07:33:54.280Z,102358.99
2018-09-27T07:37:21.063Z,102354.43
2018-09-27T07:39:50.983Z,102353.76
2018-09-27T07:42:23.576Z,102344.54
2018-09-27T07:44:54.753Z,102350.42
2018-09-27T07:47:24.931Z,102341.55
2018-09-27T07:49:55.109Z,102348.74
2018-09-27T07:52:25.722Z,102346.77
2018-09-27T07:54:56.256Z,102343.31
2018-09-27T07:57:34.971Z,102347.18
2018-09-27T08:06:30.481Z,102357.11
2018-09-27T08:09:01.691Z,102358.33
2018-09-27T08:11:32.303Z,102357.81
2018-09-27T08:14:02.462Z,102356.70
2018-09-27T08:16:33.181Z,102355.14
2018-09-27T08:19:05.891Z,102356.38
2018-09-27T08:24:30.645Z,102366.52
2018-09-27T08:27:02.232Z,102368.08
2018-09-27T08:29:32.550Z,102358.96
2018-09-27T08:32:03.205Z,102371.41
2018-09-27T08:34:34.008Z,102365.58
2018-09-27T08:40:10.103Z,102367.22
2018-09-27T08:42:44.373Z,102367.62
2018-09-27T08:45:27.879Z,102358.54
2018-09-27T08:47:58.724Z,102362.74
2018-09-27T08:50:29.077Z,102367.46
2018-09-27T08:52:59.759Z,102360.16
2018-09-27T08:56:41.740Z,102361.63
2018-09-27T08:59:11.936Z,102352.64
2018-09-27T09:01:41.951Z,102354.04
2018-09-27T09:06:46.577Z,102342.01
2018-09-27T09:09:16.848Z,102344.58
2018-09-27T09:11:49.028Z,102336.70
2018-09-27T09:14:20.014Z,102338.37
2018-09-27T09:16:51.475Z,102328.89
2018-09-27T09:19:21.524Z,102328.78
2018-09-27T09:21:51.515Z,102320.11
2018-09-27T09:24:22.671Z,102328.95
2018-09-27T09:26:53.539Z,102317.95
2018-09-27T09:29:24.185Z,102323.77
2018-09-27T09:31:54.727Z,102306.77
2018-09-27T09:34:24.621Z,102312.27
2018-09-27T09:36:54.545Z,102305.83
2018-09-27T09:39:25.506Z,102311.98
2018-09-27T09:41:55.452Z,102303.44
2018-09-27T09:44:25.425Z,102296.45
2018-09-27T09:46:55.290Z,102289.18
2018-09-27T09:49:25.497Z,102280.31
2018-09-27T09:51:56.105Z,102277.05
2018-09-27T09:54:26.146Z,102273.61
2018-09-27T09:56:56.417Z,102277.69
2018-09-27T09:59:27.615Z,102281.53
2018-09-27T10:01:58.477Z,102281.35
2018-09-27T10:04:29.212Z,102276.27
2018-09-27T10:06:59.203Z,102279.10
2018-09-27T10:09:30.379Z,102272.59
2018-09-27T10:12:00.427Z,102267.45
2018-09-27T10:14:31.186Z,102266.66
2018-09-27T10:17:02.817Z,102268.69
2018-09-27T10:19:33.361Z,102259.09
2018-09-27T10:22:05.090Z,102256.56
2018-09-27T10:24:35.514Z,102250.73
2018-09-27T10:27:05.650Z,102250.02
2018-09-27T10:29:35.864Z,102247.77
2018-09-27T10:32:06.539Z,102239.63
2018-09-27T10:34:36.854Z,102231.40
2018-09-27T10:37:06.997Z,102227.64
2018-09-27T10:39:38.044Z,102226.14
2018-09-27T10:42:08.090Z,102220.84
2018-09-27T10:44:38.700Z,102220.75
2018-09-27T10:47:09.443Z,102216.23
2018-09-27T10:49:39.370Z,102203.73
2018-09-27T10:52:09.704Z,102205.34
2018-09-27T10:54:40.319Z,102206.54
2018-09-27T10:57:10.392Z,102199.26
2018-09-27T10:59:40.474Z,102202.47
2018-09-27T11:02:10.557Z,102186.12
2018-09-27T11:04:40.591Z,102182.87
2018-09-27T11:07:10.900Z,102183.62
2018-09-27T11:09:41.032Z,102187.11
2018-09-27T11:12:14.872Z,102178.81
2018-09-27T11:14:45.559Z,102173.06
2018-09-27T11:17:16.117Z,102167.73
2018-09-27T11:19:47.301Z,102167.80
2018-09-27T11:22:18.504Z,102167.89
2018-09-27T11:24:48.999Z,102162.27
2018-09-27T11:27:19.440Z,102171.28
2018-09-27T11:29:54.484Z,102167.67
2018-09-27T11:32:30.153Z,102161.53
2018-09-27T11:35:10.229Z,102161.66
2018-09-27T11:37:40.609Z,102159.19
2018-09-27T11:40:12.071Z,102155.82
2018-09-27T11:42:42.173Z,102151.24
2018-09-27T11:45:21.126Z,102139.82
2018-09-27T11:47:54.436Z,102136.70
2018-09-27T11:50:24.727Z,102137.66
2018-09-27T11:52:58.746Z,102131.25
2018-09-27T11:55:29.564Z,102138.92
2018-09-27T11:58:00.727Z,102121.51
2018-09-27T12:00:31.736Z,102107.84
2018-09-27T12:03:05.980Z,102120.92
2018-09-27T12:05:36.600Z,102118.30
2018-09-27T12:08:07.560Z,102118.86
2018-09-27T12:10:38.595Z,102112.67
2018-09-27T12:13:09.318Z,102117.66
2018-09-27T12:15:39.538Z,102113.48
2018-09-27T12:18:10.889Z,102113.98
2018-09-27T12:20:42.324Z,102112.62
2018-09-27T12:23:13.171Z,102113.38
2018-09-27T12:28:25.730Z,102107.19
2018-09-27T12:30:56.064Z,102103.17
2018-09-27T12:33:26.458Z,102101.51
2018-09-27T12:35:58.106Z,102100.05
2018-09-27T12:38:29.723Z,102105.67
2018-09-27T12:40:59.906Z,102107.98
2018-09-27T12:43:30.318Z,102091.91
2018-09-27T12:46:02.711Z,102096.77
2018-09-27T12:48:32.615Z,102086.45
2018-09-27T12:51:02.490Z,102089.97
2018-09-27T12:53:32.317Z,102087.63
2018-09-27T12:56:03.355Z,102082.88
2018-09-27T12:58:33.756Z,102089.83
2018-09-27T13:01:05.795Z,102083.03
2018-09-27T13:03:36.218Z,102086.45
2018-09-27T13:06:06.835Z,102079.06
2018-09-27T13:08:38.544Z,102074.13
2018-09-27T13:11:08.789Z,102071.60
2018-09-27T13:13:44.743Z,102069.64
2018-09-27T13:16:40.563Z,102067.83
2018-09-27T13:19:10.931Z,102057.42
2018-09-27T13:21:43.839Z,102061.23
2018-09-27T13:24:15.122Z,102051.36
2018-09-27T13:26:48.713Z,102043.77
2018-09-27T13:29:21.883Z,102037.84
2018-09-27T13:31:52.440Z,102033.33
2018-09-27T13:34:22.773Z,102038.65
2018-09-27T13:36:53.639Z,102025.89
2018-09-27T13:39:26.083Z,102026.34
2018-09-27T13:42:00.042Z,102021.81
2018-09-27T13:44:30.318Z,102021.30
2018-09-27T13:47:04.295Z,102023.02
2018-09-27T13:49:38.085Z,102020.71
2018-09-27T13:52:14.185Z,102015.78
2018-09-27T13:57:20.595Z,102004.92
2018-09-27T13:59:53.767Z,102013.05
2018-09-27T14:02:25.116Z,102001.14
2018-09-27T14:04:56.944Z,102000.63
2018-09-27T14:07:27.338Z,102000.44
2018-09-27T14:09:57.991Z,102015.06
2018-09-27T14:12:29.554Z,102006.27
2018-09-27T14:15:02.339Z,101992.08
2018-09-27T14:17:34.016Z,101990.34
2018-09-27T14:20:07.645Z,101991.89
2018-09-27T14:22:39.220Z,101989.78
2018-09-27T14:25:12.133Z,101985.20
2018-09-27T14:27:44.443Z,101978.21
2018-09-27T14:30:27.569Z,101983.03
2018-09-27T14:32:58.875Z,101973.53
2018-09-27T14:35:29.885Z,101973.18
2018-09-27T14:38:00.061Z,101959.72
2018-09-27T14:40:30.518Z,101971.83
2018-09-27T14:43:01.019Z,101954.38
2018-09-27T14:45:31.347Z,101953.88
2018-09-27T14:48:01.694Z,101949.41
2018-09-27T14:50:35.372Z,101950.02
2018-09-27T14:53:08.380Z,101941.31
2018-09-27T14:55:44.530Z,101923.83
2018-09-27T14:58:15.459Z,101921.31
2018-09-27T15:00:45.822Z,101920.45
2018-09-27T15:03:15.837Z,101919.86
2018-09-27T15:05:46.128Z,101918.34
2018-09-27T15:08:16.286Z,101919.09
2018-09-27T15:10:46.516Z,101910.09
2018-09-27T15:13:16.976Z,101906.58
2018-09-27T15:15:49.198Z,101908.63
2018-09-27T15:18:21.853Z,101900.69
2018-09-27T15:20:52.205Z,101909.33
2018-09-27T15:23:23.244Z,101891.28
2018-09-27T15:25:55.096Z,101893.53
2018-09-27T15:28:25.640Z,101897.02
2018-09-27T15:30:56.170Z,101891.28
2018-09-27T15:33:26.077Z,101900.59
2018-09-27T15:35:55.985Z,101893.80
2018-09-27T15:38:26.084Z,101883.53
2018-09-27T15:40:57.868Z,101894.09
2018-09-27T15:43:28.064Z,101892.05
2018-09-27T15:45:58.645Z,101884.59
2018-09-27T15:48:30.346Z,101879.53
2018-09-27T15:51:00.501Z,101878.47
2018-09-27T15:53:30.404Z,101877.78
2018-09-27T15:56:00.435Z,101870.23
2018-09-27T15:58:30.647Z,101870.23
2018-09-27T16:01:01.070Z,101869.44
2018-09-27T16:03:32.098Z,101871.98
2018-09-27T16:06:02.119Z,101872.75
2018-09-27T16:08:32.657Z,101870.89
2018-09-27T16:11:03.288Z,101871.66
2018-09-27T16:13:33.423Z,101858.78
2018-09-27T16:16:08.435Z,101859.64
2018-09-27T16:18:38.851Z,101849.94
2018-09-27T16:21:10.378Z,101845.01
2018-09-27T16:23:43.039Z,101844.88
2018-09-27T16:26:15.278Z,101844.97
2018-09-27T16:28:46.509Z,101840.14
2018-09-27T16:31:17.543Z,101844.02
2018-09-27T16:33:55.412Z,101846.43
2018-09-27T16:36:29.460Z,101844.21
2018-09-27T16:39:02.229Z,101836.73
2018-09-27T16:41:33.458Z,101833.81
2018-09-27T16:44:07.078Z,101833.52
2018-09-27T16:46:37.876Z,101836.33
2018-09-27T16:49:10.965Z,101823.72
2018-09-27T16:51:44.974Z,101827.13
2018-09-27T16:54:16.478Z,101825.18
2018-09-27T16:56:47.105Z,101813.27
2018-09-27T16:59:18.657Z,101815.98
2018-09-27T17:01:50.144Z,101811.12
2018-09-27T17:04:24.060Z,101810.45
2018-09-27T17:06:54.753Z,101803.28
2018-09-27T17:09:39.040Z,101803.37
2018-09-27T17:12:09.672Z,101799.20
2018-09-27T17:14:39.798Z,101807.55
2018-09-27T17:17:13.684Z,101800.06
2018-09-27T17:19:47.162Z,101785.94
2018-09-27T17:22:20.183Z,101786.34
2018-09-27T17:24:53.592Z,101787.10
2018-09-27T17:27:24.827Z,101778.00
2018-09-27T17:29:55.691Z,101778.20
2018-09-27T17:32:25.851Z,101775.48
2018-09-27T17:34:55.960Z,101776.55
2018-09-27T17:37:28.798Z,101776.45
2018-09-27T17:39:59.527Z,101768.87
2018-09-27T17:42:30.125Z,101772.58
2018-09-27T17:45:00.590Z,101769.77
2018-09-27T17:47:30.663Z,101765.30
2018-09-27T17:50:03.594Z,101765.20
2018-09-27T17:52:34.008Z,101762.59
2018-09-27T17:55:06.552Z,101761.33
2018-09-27T17:57:36.571Z,101760.44
2018-09-27T18:00:06.710Z,101767.52
2018-09-27T18:02:36.803Z,101750.88
2018-09-27T18:05:18.814Z,101754.05
2018-09-27T18:07:36.931Z,101751.44
2018-09-27T18:10:06.854Z,101750.48
2018-09-27T18:12:37.035Z,101757.66
2018-09-27T18:15:07.408Z,101748.06
2018-09-27T18:17:37.428Z,101745.91
2018-09-27T18:20:10.406Z,101738.27
2018-09-27T18:22:41.469Z,101738.27
2018-09-27T18:25:11.536Z,101729.24
2018-09-27T18:27:42.878Z,101738.37
2018-09-27T18:30:16.089Z,101726.17
2018-09-27T18:32:54.020Z,101722.95
2018-09-27T18:35:29.981Z,101725.77
2018-09-27T18:38:15.364Z,101721.27
2018-09-27T18:40:46.074Z,101728.65
2018-09-27T18:43:17.980Z,101738.31
2018-09-27T18:46:07.812Z,101718.96
2018-09-27T18:49:02.631Z,101728.05
2018-09-27T18:51:33.155Z,101726.60
2018-09-27T18:54:07.007Z,101721.18
2018-09-27T18:56:39.078Z,101713.41
2018-09-27T18:59:12.961Z,101704.11
2018-09-27T19:01:44.305Z,101701.50
2018-09-27T19:04:15.782Z,101694.82
2018-09-27T19:06:48.607Z,101669.06
2018-09-27T19:09:19.693Z,101686.19
2018-09-27T19:11:51.290Z,101675.73
2018-09-27T19:14:22.877Z,101677.39
2018-09-27T19:16:54.815Z,101685.03
2018-09-27T19:19:26.546Z,101687.95
2018-09-27T19:21:56.646Z,101679.41
2018-09-27T19:24:28.015Z,101667.61
2018-09-27T19:26:59.341Z,101674.95
2018-09-27T19:29:30.769Z,101674.09
2018-09-27T19:32:03.339Z,101675.05
2018-09-27T19:34:33.732Z,101659.84
2018-09-27T19:37:05.361Z,101664.02
2018-09-27T19:39:45.891Z,101661.50
2018-09-27T19:42:17.258Z,101661.56
2018-09-27T19:44:47.457Z,101658.09
2018-09-27T19:47:17.880Z,101661.56
2018-09-27T19:49:49.825Z,101664.47
2018-09-27T19:52:20.703Z,101673.86
2018-09-27T19:54:50.865Z,101671.25
2018-09-27T19:57:21.711Z,101673.96
2018-09-27T19:59:52.166Z,101660.61
2018-09-27T20:02:22.201Z,101663.57
2018-09-27T20:04:52.438Z,101670.00
2018-09-27T20:07:22.744Z,101669.90
2018-09-27T20:09:53.758Z,101666.73
2018-09-27T20:12:24.423Z,101669.53
2018-09-27T20:14:54.690Z,101665.33
2018-09-27T20:17:24.654Z,101659.89
2018-09-27T20:19:56.017Z,101653.41
2018-09-27T20:22:27.386Z,101651.17
2018-09-27T20:24:57.713Z,101653.08
2018-09-27T20:27:28.813Z,101645.61
2018-09-27T20:29:59.447Z,101649.86
2018-09-27T20:32:29.868Z,101648.51
2018-09-27T20:35:00.177Z,101651.22
2018-09-27T20:37:31.246Z,101638.73
2018-09-27T20:40:02.183Z,101640.83
2018-09-27T20:42:33.466Z,101643.84
2018-09-27T20:45:03.233Z,101641.69
2018-09-27T20:47:34.110Z,101651.56
2018-09-27T20:50:05.315Z,101654.27
2018-09-27T20:52:36.163Z,101640.73
2018-09-27T20:55:07.066Z,101648.00
2018-09-27T20:57:37.310Z,101650.61
2018-09-27T21:00:08.354Z,101650.20
2018-09-27T21:02:40.131Z,101636.67
2018-09-27T21:05:10.712Z,101659.80
2018-09-27T21:07:41.709Z,101655.92
2018-09-27T21:10:11.971Z,101653.78
2018-09-27T21:12:41.788Z,101653.50
2018-09-27T21:15:13.818Z,101653.66
2018-09-27T21:17:45.606Z,101660.22
2018-09-27T21:20:15.718Z,101651.48
2018-09-27T21:22:46.737Z,101658.94
2018-09-27T21:25:19.157Z,101673.52
2018-09-27T21:27:50.419Z,101688.13
2018-09-27T21:30:24.123Z,101679.45
2018-09-27T21:32:54.795Z,101682.36
2018-09-27T21:35:28.027Z,101683.19
2018-09-27T21:37:58.350Z,101693.75
2018-09-27T21:40:31.385Z,101689.88
2018-09-27T21:43:01.686Z,101697.53
2018-09-27T21:45:35.774Z,101694.37
2018-09-27T21:48:08.893Z,101697.73
2018-09-27T21:50:39.599Z,101693.21
2018-09-27T21:53:13.090Z,101697.08
2018-09-27T21:55:46.419Z,101692.17
2018-09-27T21:58:17.291Z,101698.30
2018-09-27T22:00:52.362Z,101700.20
2018-09-27T22:03:26.840Z,101703.78
2018-09-27T22:05:57.656Z,101702.34
2018-09-27T22:08:28.759Z,101708.05
2018-09-27T22:11:02.396Z,101706.95
2018-09-27T22:13:34.258Z,101703.20
2018-09-27T22:16:05.260Z,101702.64
2018-09-27T22:18:35.930Z,101700.59
2018-09-27T22:21:07.854Z,101719.33
2018-09-27T22:23:39.732Z,101711.06
2018-09-27T22:26:14.746Z,101710.74
2018-09-27T22:28:45.515Z,101719.62
2018-09-27T22:31:17.966Z,101702.89
2018-09-27T22:33:48.641Z,101712.66
2018-09-27T22:36:18.598Z,101710.41
2018-09-27T22:38:48.636Z,101708.36
2018-09-27T22:41:18.676Z,101711.22
2018-09-27T22:43:49.684Z,101710.28
2018-09-27T22:46:21.731Z,101716.95
2018-09-27T22:49:38.660Z,101714.70
2018-09-27T22:52:09.129Z,101711.22
2018-09-27T22:54:39.916Z,101715.89
2018-09-27T22:57:10.346Z,101713.08
2018-09-27T22:59:42.328Z,101709.14
2018-09-27T23:02:13.988Z,101714.70
2018-09-27T23:04:43.868Z,101714.63
2018-09-27T23:07:14.127Z,101720.28
2018-09-27T23:09:46.369Z,101719.80
2018-09-27T23:12:16.284Z,101729.89
2018-09-27T23:14:47.451Z,101736.92
2018-09-27T23:17:17.695Z,101736.02
2018-09-27T23:19:49.587Z,101737.64
2018-09-27T23:22:21.686Z,101735.51
2018-09-27T23:24:51.916Z,101742.94
2018-09-27T23:27:22.102Z,101750.02
2018-09-27T23:29:53.002Z,101743.36
2018-09-27T23:32:25.309Z,101748.66
2018-09-27T23:34:55.221Z,101750.02
2018-09-27T23:37:26.802Z,101757.11
2018-09-27T23:39:56.701Z,101757.84
2018-09-27T23:42:27.092Z,101757.63
2018-09-27T23:44:58.148Z,101759.88
2018-09-27T23:47:28.057Z,101757.34
2018-09-27T23:49:58.011Z,101758.51
2018-09-27T23:52:29.200Z,101768.80
2018-09-27T23:55:00.151Z,101764.38
2018-09-27T23:57:30.141Z,101776.20
